Time;durP1;ratioP1;P1;durP2;ratioP2;P2;SDS_P1;SDS_P2;PMS_P1;PMS_P2;Temp;Humidity;BMP_temperature;BMP_pressure;BME280_temperature;BME280_humidity;BME280_pressure;Samples;Min_cycle;Max_cycle;Signal;HPM_P1;HPM_P2
2020/12/06 00:00:37;;;;;;;3.72;1.30;;;25.40;58.20;;;;;;5112278;28;20031;-62
2020/12/06 00:03:04;;;;;;;4.40;1.30;;;25.40;60.30;;;;;;5093797;28;20088;-65
2020/12/06 00:05:31;;;;;;;3.75;1.20;;;25.50;57.40;;;;;;5112200;28;20027;-60
2020/12/06 00:07:59;;;;;;;4.25;1.35;;;25.50;56.90;;;;;;5111739;28;20054;-61
2020/12/06 00:10:26;;;;;;;3.55;1.23;;;25.50;61.80;;;;;;5112108;28;20027;-61
2020/12/06 00:12:54;;;;;;;7.50;1.60;;;25.50;61.60;;;;;;5112126;28;20504;-60
2020/12/06 00:15:21;;;;;;;5.85;1.48;;;25.50;59.70;;;;;;5112272;28;20047;-62
2020/12/06 00:17:48;;;;;;;3.72;1.20;;;25.70;61.10;;;;;;5111681;28;20145;-66
2020/12/06 00:20:16;;;;;;;3.28;0.95;;;25.70;59.50;;;;;;5112126;28;20492;-61
2020/12/06 00:22:45;;;;;;;6.75;1.52;;;25.70;61.70;;;;;;5112397;28;20035;-62
2020/12/06 00:25:12;;;;;;;4.72;1.35;;;25.60;61.90;;;;;;5112405;28;20027;-61
2020/12/06 00:27:39;;;;;;;7.95;1.77;;;25.60;61.70;;;;;;5112120;28;20028;-64
2020/12/06 00:30:11;;;;;;;5.72;1.40;;;25.70;60.60;;;;;;5111611;28;20024;-63
2020/12/06 00:32:38;;;;;;;;;;;25.70;61.30;;;;;;5112215;28;20038;-60
2020/12/06 00:35:10;;;;;;;3.63;1.45;;;25.70;59.60;;;;;;5112014;28;19904;-64
2020/12/06 00:37:39;;;;;;;6.22;1.50;;;25.70;58.10;;;;;;5112206;28;20032;-64
2020/12/06 00:40:10;;;;;;;5.82;1.33;;;25.70;61.10;;;;;;5111746;28;20531;-64
2020/12/06 00:42:38;;;;;;;7.53;1.60;;;25.80;58.90;;;;;;5111987;28;20039;-64
2020/12/06 00:45:07;;;;;;;10.23;1.55;;;25.80;58.20;;;;;;5111576;28;20023;-63
2020/12/06 00:47:40;;;;;;;8.13;1.58;;;25.80;55.10;;;;;;5093600;28;20055;-65
2020/12/06 00:50:08;;;;;;;6.30;1.75;;;26.00;55.20;;;;;;5111705;28;20043;-62
2020/12/06 00:52:35;;;;;;;9.50;1.25;;;26.00;56.70;;;;;;5111820;28;20023;-61
2020/12/06 00:55:02;;;;;;;3.75;1.35;;;26.00;55.50;;;;;;5111296;28;20034;-61
2020/12/06 00:57:30;;;;;;;6.85;1.42;;;26.00;57.50;;;;;;5111864;28;20160;-59
2020/12/06 00:59:57;;;;;;;7.15;1.88;;;26.10;54.70;;;;;;5111530;28;20148;-63
2020/12/06 01:02:24;;;;;;;3.42;1.10;;;26.10;55.70;;;;;;5111849;28;20068;-65
2020/12/06 01:04:52;;;;;;;6.47;1.40;;;26.10;54.50;;;;;;5111482;28;20035;-62
2020/12/06 01:07:19;;;;;;;7.05;1.50;;;26.10;55.80;;;;;;5111827;28;20016;-62
2020/12/06 01:09:46;;;;;;;6.22;2.28;;;26.10;57.40;;;;;;5111296;28;20027;-60
2020/12/06 01:12:14;;;;;;;5.28;1.40;;;26.20;55.40;;;;;;5111669;28;20611;-63
2020/12/06 01:14:41;;;;;;;6.28;1.40;;;26.20;52.00;;;;;;5111531;28;20027;-60
2020/12/06 01:17:08;;;;;;;5.50;1.45;;;26.20;56.40;;;;;;5110925;28;20140;-63
2020/12/06 01:19:35;;;;;;;4.75;1.70;;;26.10;57.50;;;;;;5112030;28;20027;-63
2020/12/06 01:22:03;;;;;;;5.93;1.55;;;26.20;54.20;;;;;;5114952;28;20028;-62
2020/12/06 01:24:30;;;;;;;3.67;1.30;;;26.30;57.80;;;;;;5115378;28;20115;-64
2020/12/06 01:26:57;;;;;;;5.97;1.33;;;26.20;55.90;;;;;;5114942;28;20020;-62
2020/12/06 01:29:25;;;;;;;7.78;2.15;;;26.20;57.60;;;;;;5114958;28;20027;-67
2020/12/06 01:31:52;;;;;;;3.67;1.40;;;26.30;54.20;;;;;;5114520;28;20024;-61
2020/12/06 01:34:19;;;;;;;3.38;1.52;;;26.40;53.20;;;;;;5114715;28;20032;-61
2020/12/06 01:36:51;;;;;;;7.43;1.60;;;26.50;56.50;;;;;;5114875;28;20023;-63
2020/12/06 01:39:19;;;;;;;;;;;26.40;55.00;;;;;;5115118;28;20073;-61
2020/12/06 01:41:46;;;;;;;15.25;1.90;;;26.40;54.70;;;;;;5114220;28;19943;-61
2020/12/06 01:44:14;;;;;;;4.80;1.75;;;26.40;54.10;;;;;;5114490;28;20035;-63
2020/12/06 01:46:41;;;;;;;8.50;1.60;;;26.50;51.40;;;;;;5114521;28;20020;-62
2020/12/06 01:49:08;;;;;;;8.75;1.83;;;26.40;55.10;;;;;;5114537;28;20043;-64
2020/12/06 01:51:37;;;;;;;8.27;1.65;;;26.40;55.80;;;;;;5114935;28;20023;-62
2020/12/06 01:54:04;;;;;;;6.25;1.70;;;26.40;54.90;;;;;;5114549;28;20525;-62
2020/12/06 01:56:32;;;;;;;6.75;1.55;;;26.40;55.20;;;;;;5114782;28;20059;-61
2020/12/06 01:58:59;;;;;;;9.18;1.58;;;26.30;54.90;;;;;;5114623;28;20347;-61
2020/12/06 02:01:27;;;;;;;7.70;1.92;;;26.40;54.80;;;;;;5114494;28;20023;-61
2020/12/06 02:03:54;;;;;;;4.25;1.52;;;26.40;50.90;;;;;;5113728;28;20040;-59
2020/12/06 02:06:22;;;;;;;4.60;1.40;;;26.40;53.50;;;;;;5114440;28;20363;-63
2020/12/06 02:08:50;;;;;;;7.20;1.80;;;26.50;51.30;;;;;;5114248;28;20470;-61
2020/12/06 02:11:33;;;;;;;8.35;1.70;;;26.50;49.10;;;;;;5114269;28;20027;-62
2020/12/06 02:14:00;;;;;;;9.55;1.90;;;26.60;51.20;;;;;;5114043;28;20027;-59
2020/12/06 02:16:28;;;;;;;7.50;1.65;;;26.60;50.90;;;;;;5113982;28;20102;-63
2020/12/06 02:18:56;;;;;;;8.18;1.65;;;26.60;51.30;;;;;;5095650;28;20035;-61
2020/12/06 02:21:23;;;;;;;9.20;1.85;;;26.70;48.20;;;;;;5113947;28;20377;-60
2020/12/06 02:23:50;;;;;;;13.30;2.65;;;26.80;50.00;;;;;;5113640;28;20040;-59
2020/12/06 02:26:18;;;;;;;8.52;2.28;;;26.80;46.40;;;;;;5114011;28;20558;-62
2020/12/06 02:28:45;;;;;;;6.00;1.95;;;26.80;50.40;;;;;;5112276;28;20038;-64
2020/12/06 02:31:12;;;;;;;9.55;1.95;;;26.90;51.20;;;;;;5114357;28;20015;-65
2020/12/06 02:33:40;;;;;;;11.32;1.70;;;27.00;48.60;;;;;;5114273;28;20123;-61
2020/12/06 02:36:07;;;;;;;16.52;2.08;;;27.10;47.80;;;;;;5113011;28;20042;-58
2020/12/06 02:38:35;;;;;;;11.35;2.08;;;27.10;50.40;;;;;;5113770;28;20023;-59
2020/12/06 02:41:02;;;;;;;11.27;1.63;;;27.20;49.00;;;;;;5113097;28;20048;-57
2020/12/06 02:43:29;;;;;;;8.60;1.50;;;27.20;50.70;;;;;;5113384;28;20051;-57
2020/12/06 02:45:57;;;;;;;11.40;2.00;;;27.20;51.20;;;;;;5109063;28;20035;-60
2020/12/06 02:48:24;;;;;;;8.55;1.50;;;27.20;47.40;;;;;;5111375;28;20401;-55
2020/12/06 02:50:52;;;;;;;11.68;1.58;;;27.10;51.50;;;;;;5112110;28;20019;-58
2020/12/06 02:53:20;;;;;;;6.78;1.67;;;27.20;51.30;;;;;;5113538;28;20015;-56
2020/12/06 02:55:47;;;;;;;11.90;2.33;;;27.20;50.70;;;;;;5113135;28;20389;-56
2020/12/06 02:58:15;;;;;;;5.18;1.35;;;27.30;47.80;;;;;;5113592;28;20019;-61
2020/12/06 03:00:42;;;;;;;7.57;1.52;;;27.40;46.80;;;;;;5113358;28;20477;-57
2020/12/06 03:03:10;;;;;;;6.20;1.23;;;27.40;48.20;;;;;;5113153;28;20036;-60
2020/12/06 03:05:37;;;;;;;7.68;1.67;;;27.50;50.00;;;;;;5113218;28;20023;-59
2020/12/06 03:08:08;;;;;;;8.05;1.70;;;27.50;47.30;;;;;;5112540;28;20027;-59
2020/12/06 03:10:36;;;;;;;7.03;1.70;;;27.50;48.80;;;;;;5113426;28;20020;-58
2020/12/06 03:13:03;;;;;;;3.90;1.30;;;27.60;50.10;;;;;;5112582;28;20110;-58
2020/12/06 03:15:30;;;;;;;8.38;2.28;;;27.60;49.90;;;;;;5112964;28;20046;-57
2020/12/06 03:17:57;;;;;;;9.68;2.25;;;27.60;48.60;;;;;;5112850;28;20051;-60
2020/12/06 03:20:25;;;;;;;5.55;1.88;;;27.70;51.40;;;;;;5113217;28;20408;-58
2020/12/06 03:22:52;;;;;;;8.32;1.58;;;27.80;51.10;;;;;;5112519;28;20031;-61
2020/12/06 03:25:19;;;;;;;5.78;1.30;;;27.80;51.30;;;;;;5094272;28;20023;-61
2020/12/06 03:27:47;;;;;;;5.32;1.67;;;27.70;50.40;;;;;;5112415;28;20019;-61
2020/12/06 03:30:14;;;;;;;9.95;2.03;;;27.80;47.00;;;;;;5112772;28;20044;-61
2020/12/06 03:32:41;;;;;;;9.02;2.40;;;27.80;52.40;;;;;;5112962;28;20108;-57
2020/12/06 03:35:09;;;;;;;11.55;2.03;;;27.80;50.50;;;;;;5112377;28;20454;-62
2020/12/06 03:37:36;;;;;;;6.93;1.45;;;27.80;51.90;;;;;;5112721;28;20396;-59
2020/12/06 03:40:05;;;;;;;9.75;1.83;;;27.90;49.20;;;;;;5094277;28;20023;-64
2020/12/06 03:42:32;;;;;;;10.93;1.67;;;27.90;50.60;;;;;;5093833;28;20043;-56
2020/12/06 03:44:59;;;;;;;16.17;1.80;;;27.80;51.20;;;;;;5112609;28;20035;-60
2020/12/06 03:47:27;;;;;;;12.10;2.28;;;27.90;51.80;;;;;;5112425;28;20026;-60
2020/12/06 03:49:54;;;;;;;16.80;2.72;;;27.90;53.60;;;;;;5112082;28;20023;-58
2020/12/06 03:52:22;;;;;;;11.55;1.85;;;27.90;50.40;;;;;;5094639;28;20119;-55
2020/12/06 03:54:49;;;;;;;13.10;2.78;;;28.00;51.10;;;;;;5112131;28;20430;-51
2020/12/06 03:57:16;;;;;;;8.45;2.17;;;28.00;50.80;;;;;;5112598;28;20043;-52
2020/12/06 03:59:44;;;;;;;7.75;1.73;;;28.00;50.50;;;;;;5112139;28;20019;-52
2020/12/06 04:02:13;;;;;;;6.70;1.92;;;28.20;47.30;;;;;;5112162;28;20027;-50
2020/12/06 04:04:41;;;;;;;13.10;1.92;;;28.30;48.30;;;;;;5111724;28;20032;-53
2020/12/06 04:07:08;;;;;;;7.50;1.38;;;28.30;45.10;;;;;;5111908;28;20059;-52
2020/12/06 04:09:36;;;;;;;9.63;1.95;;;28.50;42.50;;;;;;5111639;28;20023;-50
2020/12/06 04:12:03;;;;;;;13.43;2.45;;;28.60;44.40;;;;;;5111845;28;20023;-52
2020/12/06 04:14:30;;;;;;;14.40;2.30;;;28.60;47.50;;;;;;5111752;28;20157;-52
2020/12/06 04:16:58;;;;;;;12.48;1.80;;;28.60;44.20;;;;;;5111622;28;20110;-58
2020/12/06 04:19:25;;;;;;;13.90;1.95;;;28.60;45.70;;;;;;5124333;28;20122;-57
2020/12/06 04:21:52;;;;;;;5.80;1.65;;;28.70;40.80;;;;;;5111690;28;20046;-53
2020/12/06 04:24:20;;;;;;;14.82;2.53;;;28.70;47.10;;;;;;5114470;28;20036;-60
2020/12/06 04:26:47;;;;;;;15.93;2.30;;;28.70;41.30;;;;;;5111967;28;20026;-62
2020/12/06 04:29:15;;;;;;;9.70;2.17;;;28.60;44.20;;;;;;5111865;28;20112;-58
2020/12/06 04:31:42;;;;;;;16.58;2.17;;;28.60;42.00;;;;;;5110615;28;20016;-49
2020/12/06 04:34:09;;;;;;;7.30;2.05;;;28.70;44.50;;;;;;5111645;28;20031;-55
2020/12/06 04:36:37;;;;;;;15.10;2.33;;;28.60;42.70;;;;;;5093460;28;20420;-60
2020/12/06 04:39:04;;;;;;;12.73;1.92;;;28.50;46.70;;;;;;5111140;28;20528;-62
2020/12/06 04:41:32;;;;;;;18.73;3.03;;;28.50;45.60;;;;;;5111034;28;20376;-62
2020/12/06 04:43:59;;;;;;;12.05;2.35;;;28.50;41.80;;;;;;5111360;28;20036;-52
2020/12/06 04:46:28;;;;;;;13.93;2.10;;;28.70;45.20;;;;;;5111587;28;20382;-57
2020/12/06 04:49:08;;;;;;;16.80;2.50;;;28.60;43.80;;;;;;5112125;28;20027;-56
2020/12/06 04:51:43;;;;;;;15.52;2.17;;;28.70;43.80;;;;;;5111273;28;20030;-58
2020/12/06 04:54:11;;;;;;;15.98;2.78;;;28.80;42.00;;;;;;5092560;28;20104;-59
2020/12/06 04:56:40;;;;;;;17.17;2.30;;;28.80;43.10;;;;;;5097069;28;20028;-58
2020/12/06 04:59:08;;;;;;;12.70;2.00;;;28.80;42.10;;;;;;5115941;28;20378;-57
2020/12/06 05:01:38;;;;;;;12.82;1.80;;;28.80;46.30;;;;;;5097077;28;20027;-54
2020/12/06 05:04:16;;;;;;;15.55;1.60;;;28.70;43.80;;;;;;5114828;28;20059;-54
2020/12/06 05:06:45;;;;;;;10.15;1.90;;;28.60;47.20;;;;;;5113416;28;20024;-58
2020/12/06 05:09:14;;;;;;;10.27;1.85;;;28.60;44.50;;;;;;5115497;28;20110;-58
2020/12/06 05:11:43;;;;;;;10.13;2.10;;;28.50;41.20;;;;;;5115741;28;20033;-53
2020/12/06 05:14:11;;;;;;;12.27;1.92;;;28.50;40.20;;;;;;5115600;28;20103;-58
2020/12/06 05:16:40;;;;;;;10.20;2.10;;;28.50;37.80;;;;;;5115453;28;20016;-61
2020/12/06 05:19:12;;;;;;;15.90;2.35;;;28.40;43.50;;;;;;5115642;28;20051;-62
2020/12/06 05:21:41;;;;;;;8.32;2.13;;;28.20;44.70;;;;;;5096543;28;20023;-63
2020/12/06 05:24:09;;;;;;;5.78;1.50;;;28.10;41.80;;;;;;5115224;28;20027;-62
2020/12/06 05:26:37;;;;;;;15.43;1.90;;;28.10;44.20;;;;;;5115182;28;20020;-63
2020/12/06 05:29:05;;;;;;;10.05;1.55;;;28.00;44.20;;;;;;5096801;28;20616;-61
2020/12/06 05:31:33;;;;;;;5.43;1.58;;;28.00;43.10;;;;;;5115104;28;20032;-62
2020/12/06 05:34:00;;;;;;;7.22;1.75;;;28.00;44.10;;;;;;5115045;28;20046;-63
2020/12/06 05:36:27;;;;;;;7.60;1.67;;;27.90;42.20;;;;;;5114801;28;20039;-62
2020/12/06 05:38:55;;;;;;;5.05;1.48;;;27.90;44.60;;;;;;5114565;28;20088;-62
2020/12/06 05:41:22;;;;;;;12.18;2.17;;;27.90;42.20;;;;;;5115199;28;20020;-62
2020/12/06 05:43:49;;;;;;;4.05;1.10;;;28.00;43.80;;;;;;5114592;28;20377;-63
2020/12/06 05:46:17;;;;;;;6.88;1.25;;;28.00;44.40;;;;;;5111044;27;20065;-61
2020/12/06 05:48:47;;;;;;;7.07;1.98;;;27.90;43.80;;;;;;5112813;28;20032;-62
2020/12/06 05:51:17;;;;;;;6.57;1.33;;;27.90;42.80;;;;;;5114808;28;20087;-61
2020/12/06 05:53:46;;;;;;;8.27;1.75;;;27.90;43.50;;;;;;5114407;28;20019;-63
2020/12/06 05:56:21;;;;;;;7.38;1.63;;;27.90;43.90;;;;;;5114739;28;20164;-64
2020/12/06 05:58:50;;;;;;;5.20;1.63;;;27.90;44.50;;;;;;5114875;28;20027;-62
2020/12/06 06:01:19;;;;;;;8.63;1.38;;;27.90;42.30;;;;;;5114487;28;20051;-63
2020/12/06 06:03:52;;;;;;;8.27;1.50;;;27.90;44.20;;;;;;5114139;28;20059;-63
2020/12/06 06:06:25;;;;;;;11.00;1.35;;;27.90;42.20;;;;;;5113974;28;20363;-63
2020/12/06 06:08:55;;;;;;;7.15;1.63;;;27.90;43.70;;;;;;5114751;28;20027;-62
2020/12/06 06:12:11;;;;;;;4.40;1.30;;;27.90;43.70;;;;;;5114894;28;20028;-61
2020/12/06 06:14:39;;;;;;;8.90;1.75;;;27.80;44.70;;;;;;5113995;28;20117;-64
2020/12/06 06:17:07;;;;;;;6.13;2.05;;;27.80;42.90;;;;;;5113787;28;20044;-64
2020/12/06 06:19:35;;;;;;;5.88;1.10;;;27.80;42.50;;;;;;5113903;28;20020;-64
2020/12/06 06:22:03;;;;;;;8.05;1.85;;;27.80;45.20;;;;;;5114104;28;20398;-64
2020/12/06 06:24:31;;;;;;;5.57;1.70;;;27.70;42.90;;;;;;5114616;28;20031;-64
2020/12/06 06:26:58;;;;;;;8.23;1.60;;;27.70;41.80;;;;;;5113495;28;20028;-63
2020/12/06 06:29:27;;;;;;;8.15;1.48;;;27.70;45.60;;;;;;5112655;28;20023;-64
2020/12/06 06:31:55;;;;;;;5.80;1.30;;;27.70;43.90;;;;;;5113574;28;20039;-63
2020/12/06 06:34:29;;;;;;;4.97;1.45;;;27.70;45.20;;;;;;5113916;28;20027;-62
2020/12/06 06:36:56;;;;;;;5.35;1.27;;;27.60;44.40;;;;;;5113743;28;20094;-63
2020/12/06 06:39:26;;;;;;;5.43;1.27;;;27.60;44.00;;;;;;5114213;28;20019;-66
2020/12/06 06:42:12;;;;;;;5.65;1.50;;;27.50;46.30;;;;;;5113610;28;20050;-64
2020/12/06 06:44:44;;;;;;;4.78;1.40;;;27.50;43.70;;;;;;5113961;28;20110;-62
2020/12/06 06:47:14;;;;;;;4.43;1.35;;;27.50;42.40;;;;;;5113343;28;20084;-66
2020/12/06 06:49:58;;;;;;;6.57;1.45;;;27.40;46.70;;;;;;5113905;28;20036;-64
2020/12/06 06:52:27;;;;;;;4.85;1.25;;;27.40;46.40;;;;;;5113554;28;20424;-64
2020/12/06 06:54:56;;;;;;;6.30;1.77;;;27.40;43.80;;;;;;5095210;28;20496;-64
2020/12/06 06:57:26;;;;;;;3.88;1.17;;;27.40;45.30;;;;;;5113440;28;20484;-63
2020/12/06 06:59:55;;;;;;;7.72;1.75;;;27.40;45.70;;;;;;5112917;28;20035;-62
2020/12/06 07:02:37;;;;;;;5.97;1.48;;;27.40;42.20;;;;;;5112956;28;20039;-61
2020/12/06 07:05:07;;;;;;;5.78;1.67;;;27.40;45.30;;;;;;5113265;28;20094;-63
2020/12/06 07:07:44;;;;;;;5.80;1.35;;;27.40;43.50;;;;;;5113220;28;20027;-61
2020/12/06 07:10:16;;;;;;;4.18;1.50;;;27.40;43.70;;;;;;5112966;28;20443;-62
2020/12/06 07:12:57;;;;;;;6.05;1.40;;;27.30;44.90;;;;;;5078687;28;20390;-57
2020/12/06 07:15:26;;;;;;;11.95;1.75;;;27.40;42.30;;;;;;5105974;27;20036;-62
2020/12/06 07:17:56;;;;;;;3.75;1.13;;;27.40;44.70;;;;;;5110942;27;20145;-64
2020/12/06 07:20:25;;;;;;;4.28;1.42;;;27.30;45.80;;;;;;5110091;28;20062;-58
2020/12/06 07:22:54;;;;;;;5.18;1.50;;;27.30;46.10;;;;;;5109688;28;20035;-58
2020/12/06 07:25:22;;;;;;;4.78;1.27;;;27.30;44.90;;;;;;5107224;28;20031;-56
2020/12/06 07:27:50;;;;;;;6.55;1.50;;;27.20;45.40;;;;;;5107314;28;20114;-53
2020/12/06 07:30:21;;;;;;;4.57;1.45;;;27.20;45.20;;;;;;5109440;28;20053;-61
2020/12/06 07:32:49;;;;;;;6.28;1.30;;;27.30;46.30;;;;;;5088584;28;20050;-56
2020/12/06 07:35:23;;;;;;;4.50;1.17;;;27.20;44.90;;;;;;5105243;28;20023;-57
2020/12/06 07:37:59;;;;;;;6.40;1.45;;;27.20;45.60;;;;;;5107105;28;20066;-55
2020/12/06 07:40:27;;;;;;;6.25;1.95;;;27.20;46.90;;;;;;5107614;28;20096;-58
2020/12/06 07:42:54;;;;;;;5.53;1.48;;;27.20;45.30;;;;;;5109169;28;20758;-56
2020/12/06 07:45:26;;;;;;;3.38;1.40;;;27.20;45.50;;;;;;5103191;28;20058;-60
2020/12/06 07:47:53;;;;;;;4.68;1.35;;;27.20;46.70;;;;;;5107273;28;20015;-56
2020/12/06 07:50:21;;;;;;;4.25;1.63;;;27.10;45.20;;;;;;5108701;28;20497;-59
2020/12/06 07:52:48;;;;;;;3.75;1.10;;;27.10;46.10;;;;;;5109438;28;20127;-59
2020/12/06 07:55:16;;;;;;;7.22;1.77;;;27.10;46.40;;;;;;5106217;28;20024;-51
2020/12/06 07:57:43;;;;;;;4.28;1.38;;;27.10;45.90;;;;;;5108772;28;20517;-58
2020/12/06 08:00:17;;;;;;;3.60;1.35;;;27.10;46.10;;;;;;5107904;28;20036;-67
2020/12/06 08:02:59;;;;;;;6.13;1.92;;;27.10;45.40;;;;;;5091727;28;20060;-61
2020/12/06 08:05:36;;;;;;;10.95;3.40;;;27.10;46.00;;;;;;5106302;28;20073;-60
2020/12/06 08:08:15;;;;;;;26.48;6.78;;;27.00;47.20;;;;;;5109138;28;20045;-56
2020/12/06 08:10:43;;;;;;;24.40;6.85;;;27.00;46.50;;;;;;5090168;28;20019;-57
2020/12/06 08:13:11;;;;;;;23.05;6.22;;;27.00;45.20;;;;;;5108684;28;20125;-59
2020/12/06 08:15:39;;;;;;;28.23;6.82;;;27.00;44.60;;;;;;5105701;28;20023;-60
2020/12/06 08:18:14;;;;;;;24.98;7.05;;;27.00;47.80;;;;;;5108503;28;20070;-56
2020/12/06 08:20:52;;;;;;;32.65;7.60;;;27.00;46.40;;;;;;5106810;28;20088;-59
2020/12/06 08:23:36;;;;;;;37.25;7.85;;;27.00;48.30;;;;;;5090592;28;20062;-61
2020/12/06 08:26:04;;;;;;;23.23;7.10;;;26.90;45.70;;;;;;5105532;28;20031;-61
2020/12/06 08:28:36;;;;;;;30.05;8.25;;;26.90;48.10;;;;;;5109679;28;20482;-60
2020/12/06 08:31:24;;;;;;;25.27;6.78;;;26.90;47.50;;;;;;5093718;28;20016;-53
2020/12/06 08:33:52;;;;;;;24.13;6.75;;;26.90;47.90;;;;;;5110583;28;20118;-60
2020/12/06 08:36:25;;;;;;;21.23;6.15;;;26.90;47.00;;;;;;5108291;28;20048;-55
2020/12/06 08:38:53;;;;;;;23.30;6.13;;;26.80;49.00;;;;;;5111409;28;20031;-62
2020/12/06 08:41:27;;;;;;;20.20;5.97;;;26.80;46.80;;;;;;5109614;28;20071;-63
2020/12/06 08:44:01;;;;;;;20.95;5.97;;;26.80;47.00;;;;;;5107846;28;20032;-58
2020/12/06 08:46:30;;;;;;;20.55;6.03;;;26.80;48.10;;;;;;5109881;28;20031;-60
2020/12/06 08:49:00;;;;;;;26.45;6.95;;;26.80;49.50;;;;;;5092906;28;20032;-61
2020/12/06 08:51:34;;;;;;;23.63;6.30;;;26.70;46.00;;;;;;5091546;28;20034;-63
2020/12/06 08:54:04;;;;;;;20.13;6.03;;;26.70;47.20;;;;;;5110844;28;20488;-62
2020/12/06 08:56:39;;;;;;;17.23;5.63;;;26.70;49.30;;;;;;5109693;28;20532;-49
2020/12/06 08:59:14;;;;;;;21.25;6.78;;;26.70;48.80;;;;;;5110496;28;20042;-61
2020/12/06 09:01:56;;;;;;;22.38;5.53;;;26.70;48.90;;;;;;5091756;28;20030;-66
2020/12/06 09:04:23;;;;;;;;;;;26.60;48.50;;;;;;5112583;28;20392;-54
2020/12/06 09:06:53;;;;;;;21.52;7.20;;;26.60;46.80;;;;;;5108909;27;20406;-50
2020/12/06 09:09:20;;;;;;;14.90;5.32;;;26.60;49.70;;;;;;5110670;28;20024;-59
2020/12/06 09:11:52;;;;;;;17.85;5.30;;;26.60;46.80;;;;;;5109672;28;20030;-50
2020/12/06 09:14:19;;;;;;;;;;;26.60;48.50;;;;;;5111818;28;20028;-57
2020/12/06 09:16:47;;;;;;;19.00;5.45;;;26.60;48.80;;;;;;5106465;28;19904;-51
2020/12/06 09:19:15;;;;;;;19.83;5.55;;;26.50;47.40;;;;;;5112652;28;20561;-59
2020/12/06 09:21:43;;;;;;;20.52;5.97;;;26.50;49.80;;;;;;5111992;28;20030;-53
2020/12/06 09:24:10;;;;;;;19.17;5.78;;;26.50;48.60;;;;;;5112885;28;20036;-56
2020/12/06 09:26:38;;;;;;;15.68;5.15;;;26.50;49.10;;;;;;5109145;28;20110;-62
2020/12/06 09:29:06;;;;;;;19.48;5.90;;;26.50;49.30;;;;;;5111469;28;20115;-62
2020/12/06 09:31:35;;;;;;;18.45;5.65;;;26.50;49.50;;;;;;5093967;28;20036;-56
2020/12/06 09:34:03;;;;;;;15.85;5.60;;;26.40;47.60;;;;;;5111777;28;20038;-54
2020/12/06 09:36:30;;;;;;;21.95;5.80;;;26.40;47.40;;;;;;5108082;28;20027;-52
2020/12/06 09:38:58;;;;;;;15.38;5.03;;;26.40;49.30;;;;;;5109291;28;20054;-53
2020/12/06 09:41:25;;;;;;;14.10;4.18;;;26.40;48.40;;;;;;5111320;28;20478;-49
2020/12/06 09:43:53;;;;;;;19.35;6.00;;;26.40;49.80;;;;;;5111561;28;20036;-50
2020/12/06 09:46:20;;;;;;;15.10;4.80;;;26.30;45.80;;;;;;5107848;28;20023;-56
2020/12/06 09:48:48;;;;;;;22.25;4.78;;;26.30;49.70;;;;;;5111813;28;20039;-58
2020/12/06 09:51:15;;;;;;;15.02;4.80;;;26.30;46.90;;;;;;5111955;28;20020;-53
2020/12/06 09:53:44;;;;;;;15.70;5.03;;;26.30;49.10;;;;;;5110982;28;20478;-65
2020/12/06 09:56:11;;;;;;;11.90;5.00;;;26.30;48.90;;;;;;5109055;28;20504;-54
2020/12/06 09:58:39;;;;;;;13.23;4.43;;;26.20;50.80;;;;;;5110558;28;20026;-60
2020/12/06 10:01:07;;;;;;;15.10;4.65;;;26.20;47.40;;;;;;5111760;28;20106;-65
2020/12/06 10:03:34;;;;;;;17.15;5.47;;;26.20;49.10;;;;;;5111841;28;20054;-56
2020/12/06 10:06:02;;;;;;;15.65;4.57;;;26.20;51.80;;;;;;5107879;28;20331;-53
2020/12/06 10:08:29;;;;;;;16.88;4.75;;;26.20;50.80;;;;;;5112368;27;20031;-52
2020/12/06 10:10:57;;;;;;;19.05;5.70;;;26.20;51.20;;;;;;5111003;28;20020;-61
2020/12/06 10:13:24;;;;;;;14.23;4.82;;;26.20;51.90;;;;;;5111808;28;20062;-64
2020/12/06 10:15:54;;;;;;;16.05;4.75;;;26.10;50.00;;;;;;5107963;28;20350;-57
2020/12/06 10:18:27;;;;;;;13.43;4.43;;;26.10;52.50;;;;;;5086771;28;20055;-59
2020/12/06 10:21:05;;;;;;;14.27;4.90;;;26.10;52.30;;;;;;5080782;28;20020;-66
2020/12/06 10:23:39;;;;;;;16.25;5.18;;;26.10;50.60;;;;;;5086161;28;20459;-57
2020/12/06 10:26:07;;;;;;;11.63;3.85;;;26.10;50.60;;;;;;5077873;28;20081;-63
2020/12/06 10:29:03;;;;;;;15.75;4.50;;;26.10;51.20;;;;;;5079134;28;20060;-60
2020/12/06 10:31:31;;;;;;;16.25;5.05;;;26.10;51.20;;;;;;5080658;28;20109;-53
2020/12/06 10:34:02;;;;;;;13.88;4.32;;;26.00;49.40;;;;;;5086175;28;20107;-57
2020/12/06 10:36:30;;;;;;;13.00;4.35;;;26.00;51.90;;;;;;5081086;28;20028;-60
2020/12/06 10:38:57;;;;;;;11.32;3.85;;;26.00;51.50;;;;;;5085717;28;20028;-55
2020/12/06 10:41:25;;;;;;;14.40;4.32;;;26.00;51.60;;;;;;5084476;28;20080;-56
2020/12/06 10:43:53;;;;;;;17.45;5.20;;;25.90;51.50;;;;;;5087899;28;20035;-50
2020/12/06 10:46:25;;;;;;;13.98;3.78;;;26.00;51.30;;;;;;5077685;28;20032;-61
2020/12/06 10:48:52;;;;;;;15.25;4.60;;;26.00;51.50;;;;;;5087986;28;20028;-60
2020/12/06 10:51:20;;;;;;;16.83;4.50;;;25.90;52.80;;;;;;5085875;28;20111;-62
2020/12/06 10:53:48;;;;;;;13.27;4.32;;;25.90;53.20;;;;;;5086309;28;20036;-59
2020/12/06 10:56:19;;;;;;;14.90;5.10;;;25.90;49.10;;;;;;5081220;28;20040;-63
2020/12/06 10:58:47;;;;;;;11.27;4.13;;;25.90;50.80;;;;;;5083555;28;20031;-58
2020/12/06 11:01:18;;;;;;;12.18;4.00;;;25.80;52.60;;;;;;5087777;28;20027;-65
2020/12/06 11:03:55;;;;;;;12.68;4.28;;;25.80;52.70;;;;;;5085119;28;20051;-59
2020/12/06 11:06:24;;;;;;;10.13;3.95;;;25.80;50.30;;;;;;5076319;28;20059;-59
2020/12/06 11:08:51;;;;;;;12.32;4.55;;;25.80;52.30;;;;;;5083944;28;20032;-62
2020/12/06 11:11:21;;;;;;;13.18;4.28;;;25.80;52.90;;;;;;5083708;28;20479;-57
2020/12/06 11:13:49;;;;;;;12.10;4.78;;;25.80;51.80;;;;;;5083411;28;20038;-62
2020/12/06 11:16:19;;;;;;;10.55;3.63;;;25.80;52.80;;;;;;5075749;28;20125;-64
2020/12/06 11:18:47;;;;;;;9.02;3.72;;;25.70;53.40;;;;;;5107148;28;20051;-61
2020/12/06 11:21:16;;;;;;;10.75;4.47;;;25.70;51.00;;;;;;5091367;28;20440;-58
2020/12/06 11:23:45;;;;;;;13.20;3.92;;;25.70;53.40;;;;;;5109685;28;20032;-58
2020/12/06 11:26:14;;;;;;;13.05;4.65;;;25.70;51.00;;;;;;5105612;28;20029;-61
2020/12/06 11:28:42;;;;;;;8.63;3.15;;;25.70;52.90;;;;;;5110061;28;20031;-58
2020/12/06 11:31:10;;;;;;;8.02;3.40;;;25.70;51.00;;;;;;5109545;28;20104;-65
2020/12/06 11:33:38;;;;;;;11.00;4.40;;;25.70;52.90;;;;;;5109576;28;20023;-64
2020/12/06 11:36:06;;;;;;;10.88;3.58;;;25.60;49.40;;;;;;5106002;28;20379;-51
2020/12/06 11:38:33;;;;;;;10.23;3.75;;;25.60;52.60;;;;;;5109876;28;20108;-61
2020/12/06 11:41:01;;;;;;;13.35;3.88;;;25.60;51.80;;;;;;5109357;28;20047;-54
2020/12/06 11:43:28;;;;;;;11.32;3.53;;;25.60;52.40;;;;;;5106375;28;20726;-58
2020/12/06 11:45:56;;;;;;;11.23;3.65;;;25.60;53.50;;;;;;5106822;28;20462;-58
2020/12/06 11:48:23;;;;;;;12.15;3.53;;;25.50;53.10;;;;;;5109659;28;20054;-60
2020/12/06 11:50:51;;;;;;;10.95;3.42;;;25.50;52.70;;;;;;5109317;28;20164;-62
2020/12/06 11:53:18;;;;;;;13.60;3.92;;;25.50;53.00;;;;;;5109293;28;20031;-58
2020/12/06 11:55:46;;;;;;;11.43;3.50;;;25.50;53.60;;;;;;5112130;28;20030;-61
2020/12/06 11:58:13;;;;;;;11.38;3.85;;;25.40;53.50;;;;;;5111264;28;20032;-61
2020/12/06 12:00:41;;;;;;;11.65;4.35;;;25.40;53.40;;;;;;5111726;28;20028;-62
2020/12/06 12:03:08;;;;;;;9.77;3.72;;;25.40;53.30;;;;;;5112450;28;20085;-61
2020/12/06 12:05:36;;;;;;;8.98;3.00;;;25.40;53.40;;;;;;5112275;28;20462;-61
2020/12/06 12:08:03;;;;;;;11.68;3.55;;;25.30;52.40;;;;;;5112325;28;20070;-60
2020/12/06 12:10:32;;;;;;;9.45;4.35;;;25.30;53.30;;;;;;5112581;28;20027;-63
2020/12/06 12:13:01;;;;;;;6.63;3.00;;;25.30;53.90;;;;;;5112305;28;20080;-61
2020/12/06 12:15:28;;;;;;;13.38;3.97;;;25.30;53.80;;;;;;5112668;28;20031;-63
2020/12/06 12:17:56;;;;;;;9.88;3.40;;;25.20;54.00;;;;;;5111859;28;20539;-62
2020/12/06 12:20:23;;;;;;;10.60;3.75;;;25.20;54.30;;;;;;5111046;28;20035;-61
2020/12/06 12:22:50;;;;;;;9.63;3.30;;;25.20;54.20;;;;;;5111846;28;20028;-61
2020/12/06 12:25:18;;;;;;;10.88;3.83;;;25.20;55.00;;;;;;5112247;28;20051;-62
2020/12/06 12:27:45;;;;;;;8.60;3.15;;;25.10;55.10;;;;;;5112431;28;20086;-60
2020/12/06 12:30:13;;;;;;;8.93;3.30;;;25.10;55.10;;;;;;5112139;28;20023;-62
2020/12/06 12:32:40;;;;;;;9.07;2.97;;;25.10;55.30;;;;;;5112402;28;20023;-62
2020/12/06 12:35:08;;;;;;;10.32;3.50;;;25.10;55.30;;;;;;5112289;28;20031;-62
2020/12/06 12:37:35;;;;;;;12.45;4.18;;;25.00;55.20;;;;;;5112205;28;20090;-60
2020/12/06 12:40:03;;;;;;;11.80;4.38;;;25.00;55.30;;;;;;5112321;28;20055;-61
2020/12/06 12:42:30;;;;;;;8.35;3.30;;;25.00;55.60;;;;;;5112053;28;20036;-61
2020/12/06 12:44:57;;;;;;;10.50;3.45;;;24.90;55.80;;;;;;5111986;28;20035;-62
2020/12/06 12:47:25;;;;;;;8.48;3.28;;;24.90;56.10;;;;;;5112257;28;20044;-64
2020/12/06 12:49:52;;;;;;;8.48;3.67;;;24.90;56.20;;;;;;5112116;28;20439;-61
2020/12/06 12:52:19;;;;;;;8.80;3.00;;;24.90;56.10;;;;;;5112278;28;20039;-62